sensor_id;sensor_type;location;lat;lon;timestamp;P1;durP1;ratioP1;P2;durP2;ratioP2
5608;SDS011;2826;51.354;9.588;2023-04-25T00:01:05;7.43;;;4.20;;
5608;SDS011;2826;51.354;9.588;2023-04-25T00:03:31;7.90;;;4.57;;
5608;SDS011;2826;51.354;9.588;2023-04-25T00:05:58;4.67;;;3.73;;
5608;SDS011;2826;51.354;9.588;2023-04-25T00:08:27;7.70;;;4.33;;
5608;SDS011;2826;51.354;9.588;2023-04-25T00:10:56;6.90;;;4.10;;
5608;SDS011;2826;51.354;9.588;2023-04-25T00:13:22;9.20;;;4.60;;
5608;SDS011;2826;51.354;9.588;2023-04-25T00:15:50;11.57;;;4.27;;
5608;SDS011;2826;51.354;9.588;2023-04-25T00:18:18;6.50;;;4.30;;
5608;SDS011;2826;51.354;9.588;2023-04-25T00:20:45;6.80;;;3.90;;
5608;SDS011;2826;51.354;9.588;2023-04-25T00:23:12;4.17;;;3.77;;
5608;SDS011;2826;51.354;9.588;2023-04-25T00:25:42;9.10;;;4.50;;
5608;SDS011;2826;51.354;9.588;2023-04-25T00:28:10;10.00;;;5.20;;
5608;SDS011;2826;51.354;9.588;2023-04-25T00:30:37;10.70;;;4.87;;
5608;SDS011;2826;51.354;9.588;2023-04-25T00:33:04;9.03;;;4.80;;
5608;SDS011;2826;51.354;9.588;2023-04-25T00:35:31;7.47;;;5.07;;
5608;SDS011;2826;51.354;9.588;2023-04-25T00:37:58;5.93;;;4.50;;
5608;SDS011;2826;51.354;9.588;2023-04-25T00:40:25;6.30;;;4.80;;
5608;SDS011;2826;51.354;9.588;2023-04-25T00:42:52;8.63;;;4.93;;
5608;SDS011;2826;51.354;9.588;2023-04-25T00:45:20;9.50;;;5.23;;
5608;SDS011;2826;51.354;9.588;2023-04-25T00:47:47;6.33;;;4.27;;
5608;SDS011;2826;51.354;9.588;2023-04-25T00:50:13;6.40;;;4.60;;
5608;SDS011;2826;51.354;9.588;2023-04-25T00:52:41;15.30;;;5.83;;
5608;SDS011;2826;51.354;9.588;2023-04-25T00:55:10;13.10;;;5.27;;
5608;SDS011;2826;51.354;9.588;2023-04-25T00:57:38;12.27;;;5.33;;
5608;SDS011;2826;51.354;9.588;2023-04-25T01:00:05;11.00;;;5.70;;
5608;SDS011;2826;51.354;9.588;2023-04-25T01:02:36;10.00;;;5.03;;
5608;SDS011;2826;51.354;9.588;2023-04-25T01:05:03;17.20;;;6.83;;
5608;SDS011;2826;51.354;9.588;2023-04-25T01:07:29;13.70;;;4.87;;
5608;SDS011;2826;51.354;9.588;2023-04-25T01:09:56;17.00;;;6.10;;
5608;SDS011;2826;51.354;9.588;2023-04-25T01:12:23;14.20;;;6.40;;
5608;SDS011;2826;51.354;9.588;2023-04-25T01:14:50;11.50;;;5.90;;
5608;SDS011;2826;51.354;9.588;2023-04-25T01:17:17;14.30;;;6.77;;
5608;SDS011;2826;51.354;9.588;2023-04-25T01:19:46;9.93;;;6.50;;
5608;SDS011;2826;51.354;9.588;2023-04-25T01:22:15;15.07;;;6.17;;
5608;SDS011;2826;51.354;9.588;2023-04-25T01:24:42;11.00;;;6.60;;
5608;SDS011;2826;51.354;9.588;2023-04-25T01:27:10;14.23;;;6.10;;
5608;SDS011;2826;51.354;9.588;2023-04-25T01:29:37;10.53;;;6.00;;
5608;SDS011;2826;51.354;9.588;2023-04-25T01:32:04;12.00;;;6.80;;
5608;SDS011;2826;51.354;9.588;2023-04-25T01:34:32;11.27;;;6.50;;
5608;SDS011;2826;51.354;9.588;2023-04-25T01:36:58;13.20;;;6.63;;
5608;SDS011;2826;51.354;9.588;2023-04-25T01:39:28;10.37;;;6.20;;
5608;SDS011;2826;51.354;9.588;2023-04-25T01:41:55;11.37;;;6.80;;
5608;SDS011;2826;51.354;9.588;2023-04-25T01:44:23;23.83;;;7.87;;
5608;SDS011;2826;51.354;9.588;2023-04-25T01:46:49;18.20;;;6.83;;
5608;SDS011;2826;51.354;9.588;2023-04-25T01:49:16;13.10;;;6.70;;
5608;SDS011;2826;51.354;9.588;2023-04-25T01:51:43;13.50;;;7.47;;
5608;SDS011;2826;51.354;9.588;2023-04-25T01:54:10;13.37;;;7.30;;
5608;SDS011;2826;51.354;9.588;2023-04-25T01:56:39;11.30;;;6.57;;
5608;SDS011;2826;51.354;9.588;2023-04-25T01:59:09;14.73;;;7.43;;
5608;SDS011;2826;51.354;9.588;2023-04-25T02:01:48;16.03;;;6.33;;
5608;SDS011;2826;51.354;9.588;2023-04-25T02:04:21;14.50;;;7.00;;
5608;SDS011;2826;51.354;9.588;2023-04-25T02:06:49;14.03;;;6.97;;
5608;SDS011;2826;51.354;9.588;2023-04-25T02:09:15;10.63;;;6.20;;
5608;SDS011;2826;51.354;9.588;2023-04-25T02:11:51;13.10;;;7.03;;
5608;SDS011;2826;51.354;9.588;2023-04-25T02:14:26;18.93;;;7.20;;
5608;SDS011;2826;51.354;9.588;2023-04-25T02:17:04;15.27;;;7.47;;
5608;SDS011;2826;51.354;9.588;2023-04-25T02:19:31;11.03;;;5.90;;
5608;SDS011;2826;51.354;9.588;2023-04-25T02:21:58;12.13;;;7.30;;
5608;SDS011;2826;51.354;9.588;2023-04-25T02:24:24;16.10;;;7.73;;
5608;SDS011;2826;51.354;9.588;2023-04-25T02:26:56;18.67;;;7.33;;
5608;SDS011;2826;51.354;9.588;2023-04-25T02:29:22;14.80;;;7.93;;
5608;SDS011;2826;51.354;9.588;2023-04-25T02:31:49;15.20;;;7.30;;
5608;SDS011;2826;51.354;9.588;2023-04-25T02:34:16;17.43;;;7.53;;
5608;SDS011;2826;51.354;9.588;2023-04-25T02:36:42;21.27;;;6.00;;
5608;SDS011;2826;51.354;9.588;2023-04-25T02:39:09;17.90;;;7.63;;
5608;SDS011;2826;51.354;9.588;2023-04-25T02:41:36;11.07;;;6.50;;
5608;SDS011;2826;51.354;9.588;2023-04-25T02:44:04;12.70;;;5.80;;
5608;SDS011;2826;51.354;9.588;2023-04-25T02:46:30;13.93;;;6.73;;
5608;SDS011;2826;51.354;9.588;2023-04-25T02:48:58;14.00;;;7.20;;
5608;SDS011;2826;51.354;9.588;2023-04-25T02:51:25;16.40;;;7.27;;
5608;SDS011;2826;51.354;9.588;2023-04-25T02:53:52;12.77;;;6.37;;
5608;SDS011;2826;51.354;9.588;2023-04-25T02:56:18;13.20;;;5.90;;
5608;SDS011;2826;51.354;9.588;2023-04-25T02:58:45;17.43;;;5.83;;
5608;SDS011;2826;51.354;9.588;2023-04-25T03:01:13;12.23;;;6.47;;
5608;SDS011;2826;51.354;9.588;2023-04-25T03:03:40;10.77;;;6.07;;
5608;SDS011;2826;51.354;9.588;2023-04-25T03:06:06;11.00;;;6.77;;
5608;SDS011;2826;51.354;9.588;2023-04-25T03:08:32;8.90;;;5.80;;
5608;SDS011;2826;51.354;9.588;2023-04-25T03:11:01;8.67;;;6.00;;
5608;SDS011;2826;51.354;9.588;2023-04-25T03:13:28;20.53;;;7.03;;
5608;SDS011;2826;51.354;9.588;2023-04-25T03:15:56;20.13;;;6.27;;
5608;SDS011;2826;51.354;9.588;2023-04-25T03:18:24;12.20;;;6.23;;
5608;SDS011;2826;51.354;9.588;2023-04-25T03:20:50;10.33;;;6.10;;
5608;SDS011;2826;51.354;9.588;2023-04-25T03:23:17;10.17;;;5.77;;
5608;SDS011;2826;51.354;9.588;2023-04-25T03:25:44;9.80;;;6.50;;
5608;SDS011;2826;51.354;9.588;2023-04-25T03:28:11;13.50;;;7.00;;
5608;SDS011;2826;51.354;9.588;2023-04-25T03:30:37;14.33;;;7.17;;
5608;SDS011;2826;51.354;9.588;2023-04-25T03:33:04;12.07;;;6.70;;
5608;SDS011;2826;51.354;9.588;2023-04-25T03:35:32;8.47;;;5.60;;
5608;SDS011;2826;51.354;9.588;2023-04-25T03:37:59;13.63;;;6.90;;
5608;SDS011;2826;51.354;9.588;2023-04-25T03:40:29;11.70;;;6.67;;
5608;SDS011;2826;51.354;9.588;2023-04-25T03:43:06;9.60;;;6.53;;
5608;SDS011;2826;51.354;9.588;2023-04-25T03:45:34;16.20;;;6.90;;
5608;SDS011;2826;51.354;9.588;2023-04-25T03:48:01;11.23;;;6.10;;
5608;SDS011;2826;51.354;9.588;2023-04-25T03:50:29;16.73;;;7.13;;
5608;SDS011;2826;51.354;9.588;2023-04-25T03:52:57;17.90;;;6.93;;
5608;SDS011;2826;51.354;9.588;2023-04-25T03:55:26;14.77;;;8.60;;
5608;SDS011;2826;51.354;9.588;2023-04-25T03:57:53;14.97;;;6.80;;
5608;SDS011;2826;51.354;9.588;2023-04-25T04:00:21;10.97;;;5.93;;
5608;SDS011;2826;51.354;9.588;2023-04-25T04:02:50;8.17;;;5.80;;
5608;SDS011;2826;51.354;9.588;2023-04-25T04:05:18;14.47;;;7.37;;
5608;SDS011;2826;51.354;9.588;2023-04-25T04:07:51;16.37;;;7.47;;
5608;SDS011;2826;51.354;9.588;2023-04-25T04:10:19;16.13;;;7.03;;
5608;SDS011;2826;51.354;9.588;2023-04-25T04:12:45;11.33;;;6.13;;
5608;SDS011;2826;51.354;9.588;2023-04-25T04:15:12;11.93;;;7.53;;
5608;SDS011;2826;51.354;9.588;2023-04-25T04:17:39;12.17;;;6.97;;
5608;SDS011;2826;51.354;9.588;2023-04-25T04:20:07;13.53;;;6.13;;
5608;SDS011;2826;51.354;9.588;2023-04-25T04:22:35;17.10;;;6.20;;
5608;SDS011;2826;51.354;9.588;2023-04-25T04:25:07;8.37;;;5.93;;
5608;SDS011;2826;51.354;9.588;2023-04-25T04:27:55;9.33;;;5.60;;
5608;SDS011;2826;51.354;9.588;2023-04-25T04:30:42;13.23;;;6.07;;
5608;SDS011;2826;51.354;9.588;2023-04-25T04:33:12;21.03;;;6.80;;
5608;SDS011;2826;51.354;9.588;2023-04-25T04:35:41;13.27;;;6.13;;
5608;SDS011;2826;51.354;9.588;2023-04-25T04:38:08;8.67;;;5.90;;
5608;SDS011;2826;51.354;9.588;2023-04-25T04:40:36;12.37;;;7.17;;
5608;SDS011;2826;51.354;9.588;2023-04-25T04:43:12;14.33;;;7.03;;
5608;SDS011;2826;51.354;9.588;2023-04-25T04:46:12;9.90;;;7.27;;
5608;SDS011;2826;51.354;9.588;2023-04-25T04:49:02;14.37;;;7.20;;
5608;SDS011;2826;51.354;9.588;2023-04-25T04:51:47;20.07;;;8.70;;
5608;SDS011;2826;51.354;9.588;2023-04-25T04:54:39;14.43;;;8.40;;
5608;SDS011;2826;51.354;9.588;2023-04-25T04:57:24;12.07;;;7.60;;
5608;SDS011;2826;51.354;9.588;2023-04-25T05:00:15;23.43;;;11.30;;
5608;SDS011;2826;51.354;9.588;2023-04-25T05:03:02;21.30;;;9.40;;
5608;SDS011;2826;51.354;9.588;2023-04-25T05:05:47;18.03;;;8.87;;
5608;SDS011;2826;51.354;9.588;2023-04-25T05:08:32;12.70;;;7.23;;
5608;SDS011;2826;51.354;9.588;2023-04-25T05:11:13;23.50;;;10.20;;
5608;SDS011;2826;51.354;9.588;2023-04-25T05:13:54;15.30;;;7.77;;
5608;SDS011;2826;51.354;9.588;2023-04-25T05:16:41;18.83;;;8.97;;
5608;SDS011;2826;51.354;9.588;2023-04-25T05:19:35;21.23;;;9.07;;
5608;SDS011;2826;51.354;9.588;2023-04-25T05:22:22;20.13;;;8.90;;
5608;SDS011;2826;51.354;9.588;2023-04-25T05:25:07;12.30;;;6.87;;
5608;SDS011;2826;51.354;9.588;2023-04-25T05:27:58;14.80;;;7.37;;
5608;SDS011;2826;51.354;9.588;2023-04-25T05:30:37;13.13;;;8.00;;
5608;SDS011;2826;51.354;9.588;2023-04-25T05:33:16;15.03;;;6.80;;
5608;SDS011;2826;51.354;9.588;2023-04-25T05:35:44;13.80;;;7.17;;
5608;SDS011;2826;51.354;9.588;2023-04-25T05:38:11;9.33;;;5.90;;
5608;SDS011;2826;51.354;9.588;2023-04-25T05:40:58;10.27;;;5.03;;
5608;SDS011;2826;51.354;9.588;2023-04-25T05:43:43;6.93;;;4.37;;
5608;SDS011;2826;51.354;9.588;2023-04-25T05:46:29;7.13;;;4.67;;
5608;SDS011;2826;51.354;9.588;2023-04-25T05:49:11;7.00;;;4.80;;
5608;SDS011;2826;51.354;9.588;2023-04-25T05:51:56;7.67;;;5.07;;
5608;SDS011;2826;51.354;9.588;2023-04-25T05:54:35;10.70;;;5.40;;
5608;SDS011;2826;51.354;9.588;2023-04-25T05:57:03;8.30;;;4.07;;
5608;SDS011;2826;51.354;9.588;2023-04-25T05:59:29;5.90;;;3.70;;
5608;SDS011;2826;51.354;9.588;2023-04-25T06:01:56;6.97;;;4.10;;
5608;SDS011;2826;51.354;9.588;2023-04-25T06:04:24;6.70;;;4.00;;
5608;SDS011;2826;51.354;9.588;2023-04-25T06:06:53;5.87;;;4.43;;
5608;SDS011;2826;51.354;9.588;2023-04-25T06:09:21;7.10;;;3.77;;
5608;SDS011;2826;51.354;9.588;2023-04-25T06:11:48;5.70;;;3.83;;
5608;SDS011;2826;51.354;9.588;2023-04-25T06:14:14;7.10;;;4.33;;
5608;SDS011;2826;51.354;9.588;2023-04-25T06:16:46;14.37;;;4.93;;
5608;SDS011;2826;51.354;9.588;2023-04-25T06:19:13;9.80;;;4.33;;
5608;SDS011;2826;51.354;9.588;2023-04-25T06:21:41;9.37;;;3.87;;
5608;SDS011;2826;51.354;9.588;2023-04-25T06:24:09;4.50;;;3.77;;
5608;SDS011;2826;51.354;9.588;2023-04-25T06:26:35;7.30;;;3.63;;
5608;SDS011;2826;51.354;9.588;2023-04-25T06:29:02;8.27;;;3.93;;
5608;SDS011;2826;51.354;9.588;2023-04-25T06:31:29;5.20;;;3.30;;
5608;SDS011;2826;51.354;9.588;2023-04-25T06:33:59;7.47;;;3.77;;
5608;SDS011;2826;51.354;9.588;2023-04-25T06:36:27;3.20;;;2.87;;
5608;SDS011;2826;51.354;9.588;2023-04-25T06:39:01;5.63;;;3.47;;
5608;SDS011;2826;51.354;9.588;2023-04-25T06:41:27;1.97;;;1.77;;
5608;SDS011;2826;51.354;9.588;2023-04-25T06:43:58;6.13;;;3.40;;
5608;SDS011;2826;51.354;9.588;2023-04-25T06:46:38;5.10;;;3.00;;
5608;SDS011;2826;51.354;9.588;2023-04-25T06:49:05;3.87;;;2.57;;
5608;SDS011;2826;51.354;9.588;2023-04-25T06:51:32;5.97;;;3.10;;
5608;SDS011;2826;51.354;9.588;2023-04-25T06:54:00;12.33;;;3.33;;
5608;SDS011;2826;51.354;9.588;2023-04-25T06:56:37;9.10;;;3.40;;
5608;SDS011;2826;51.354;9.588;2023-04-25T06:59:09;4.33;;;3.27;;
5608;SDS011;2826;51.354;9.588;2023-04-25T07:01:38;11.90;;;3.63;;
5608;SDS011;2826;51.354;9.588;2023-04-25T07:04:09;14.77;;;4.63;;
5608;SDS011;2826;51.354;9.588;2023-04-25T07:06:43;12.17;;;3.60;;
5608;SDS011;2826;51.354;9.588;2023-04-25T07:09:12;16.27;;;3.77;;
5608;SDS011;2826;51.354;9.588;2023-04-25T07:11:41;11.33;;;4.37;;
5608;SDS011;2826;51.354;9.588;2023-04-25T07:14:07;13.23;;;4.37;;
5608;SDS011;2826;51.354;9.588;2023-04-25T07:16:34;11.47;;;3.90;;
5608;SDS011;2826;51.354;9.588;2023-04-25T07:19:01;13.23;;;4.07;;
5608;SDS011;2826;51.354;9.588;2023-04-25T07:21:28;11.40;;;3.40;;
5608;SDS011;2826;51.354;9.588;2023-04-25T07:23:58;28.27;;;4.13;;
5608;SDS011;2826;51.354;9.588;2023-04-25T07:26:31;14.83;;;4.97;;
5608;SDS011;2826;51.354;9.588;2023-04-25T07:29:24;14.10;;;4.37;;
5608;SDS011;2826;51.354;9.588;2023-04-25T07:31:51;13.47;;;3.37;;
5608;SDS011;2826;51.354;9.588;2023-04-25T07:34:19;22.73;;;5.00;;
5608;SDS011;2826;51.354;9.588;2023-04-25T07:36:45;14.63;;;4.03;;
5608;SDS011;2826;51.354;9.588;2023-04-25T07:39:12;17.37;;;5.27;;
5608;SDS011;2826;51.354;9.588;2023-04-25T07:41:40;18.30;;;4.03;;
5608;SDS011;2826;51.354;9.588;2023-04-25T07:44:12;12.10;;;3.50;;
5608;SDS011;2826;51.354;9.588;2023-04-25T07:46:39;10.73;;;3.13;;
5608;SDS011;2826;51.354;9.588;2023-04-25T07:49:07;12.37;;;3.87;;
5608;SDS011;2826;51.354;9.588;2023-04-25T07:51:35;17.30;;;4.40;;
5608;SDS011;2826;51.354;9.588;2023-04-25T07:54:07;20.53;;;4.63;;
5608;SDS011;2826;51.354;9.588;2023-04-25T07:56:37;16.60;;;4.70;;
5608;SDS011;2826;51.354;9.588;2023-04-25T07:59:04;17.43;;;5.40;;
5608;SDS011;2826;51.354;9.588;2023-04-25T08:01:33;17.83;;;4.17;;
5608;SDS011;2826;51.354;9.588;2023-04-25T08:04:03;9.13;;;4.27;;
5608;SDS011;2826;51.354;9.588;2023-04-25T08:06:48;19.83;;;4.23;;
5608;SDS011;2826;51.354;9.588;2023-04-25T08:09:20;15.60;;;3.70;;
5608;SDS011;2826;51.354;9.588;2023-04-25T08:11:47;9.33;;;3.53;;
5608;SDS011;2826;51.354;9.588;2023-04-25T08:14:19;13.07;;;4.37;;
5608;SDS011;2826;51.354;9.588;2023-04-25T08:16:47;12.40;;;4.27;;
5608;SDS011;2826;51.354;9.588;2023-04-25T08:19:14;17.53;;;5.40;;
5608;SDS011;2826;51.354;9.588;2023-04-25T08:21:41;14.37;;;3.87;;
5608;SDS011;2826;51.354;9.588;2023-04-25T08:24:13;6.50;;;2.20;;
5608;SDS011;2826;51.354;9.588;2023-04-25T08:26:40;10.90;;;3.50;;
5608;SDS011;2826;51.354;9.588;2023-04-25T08:29:08;15.43;;;4.70;;
5608;SDS011;2826;51.354;9.588;2023-04-25T08:31:39;11.80;;;3.97;;
5608;SDS011;2826;51.354;9.588;2023-04-25T08:34:07;7.17;;;2.73;;
5608;SDS011;2826;51.354;9.588;2023-04-25T08:36:41;17.43;;;3.67;;
5608;SDS011;2826;51.354;9.588;2023-04-25T08:39:37;6.50;;;2.03;;
5608;SDS011;2826;51.354;9.588;2023-04-25T08:42:22;10.70;;;3.50;;
5608;SDS011;2826;51.354;9.588;2023-04-25T08:44:50;21.40;;;3.53;;
5608;SDS011;2826;51.354;9.588;2023-04-25T08:47:22;24.10;;;3.50;;
5608;SDS011;2826;51.354;9.588;2023-04-25T08:49:54;18.97;;;3.30;;
5608;SDS011;2826;51.354;9.588;2023-04-25T08:52:22;10.53;;;2.70;;
5608;SDS011;2826;51.354;9.588;2023-04-25T08:54:51;9.23;;;3.10;;
5608;SDS011;2826;51.354;9.588;2023-04-25T08:57:21;11.70;;;3.00;;
5608;SDS011;2826;51.354;9.588;2023-04-25T08:59:49;7.80;;;2.50;;
5608;SDS011;2826;51.354;9.588;2023-04-25T09:02:17;7.23;;;3.13;;
5608;SDS011;2826;51.354;9.588;2023-04-25T09:04:49;10.70;;;2.93;;
5608;SDS011;2826;51.354;9.588;2023-04-25T09:07:16;4.90;;;2.10;;
5608;SDS011;2826;51.354;9.588;2023-04-25T09:09:46;19.00;;;3.70;;
5608;SDS011;2826;51.354;9.588;2023-04-25T09:12:16;5.73;;;1.97;;
5608;SDS011;2826;51.354;9.588;2023-04-25T09:14:53;8.70;;;2.13;;
5608;SDS011;2826;51.354;9.588;2023-04-25T09:17:42;5.47;;;1.90;;
5608;SDS011;2826;51.354;9.588;2023-04-25T09:20:13;14.03;;;2.70;;
5608;SDS011;2826;51.354;9.588;2023-04-25T09:22:41;18.37;;;3.17;;
5608;SDS011;2826;51.354;9.588;2023-04-25T09:25:08;10.00;;;2.77;;
5608;SDS011;2826;51.354;9.588;2023-04-25T09:27:48;8.13;;;2.63;;
5608;SDS011;2826;51.354;9.588;2023-04-25T09:30:28;12.67;;;3.47;;
5608;SDS011;2826;51.354;9.588;2023-04-25T09:33:11;4.33;;;1.67;;
5608;SDS011;2826;51.354;9.588;2023-04-25T09:35:44;3.67;;;2.13;;
5608;SDS011;2826;51.354;9.588;2023-04-25T09:38:19;6.70;;;2.20;;
5608;SDS011;2826;51.354;9.588;2023-04-25T09:40:59;7.80;;;2.53;;
5608;SDS011;2826;51.354;9.588;2023-04-25T09:43:57;22.73;;;3.20;;
5608;SDS011;2826;51.354;9.588;2023-04-25T09:46:32;15.33;;;3.47;;
5608;SDS011;2826;51.354;9.588;2023-04-25T09:49:05;8.03;;;3.10;;
5608;SDS011;2826;51.354;9.588;2023-04-25T09:51:55;20.23;;;4.03;;
5608;SDS011;2826;51.354;9.588;2023-04-25T09:54:25;16.07;;;3.30;;
5608;SDS011;2826;51.354;9.588;2023-04-25T09:57:08;10.07;;;3.00;;
5608;SDS011;2826;51.354;9.588;2023-04-25T09:59:38;4.87;;;2.67;;
5608;SDS011;2826;51.354;9.588;2023-04-25T10:02:09;10.93;;;2.67;;
5608;SDS011;2826;51.354;9.588;2023-04-25T10:04:38;7.33;;;2.33;;
5608;SDS011;2826;51.354;9.588;2023-04-25T10:07:15;15.27;;;3.20;;
5608;SDS011;2826;51.354;9.588;2023-04-25T10:09:44;19.30;;;2.60;;
5608;SDS011;2826;51.354;9.588;2023-04-25T10:12:15;7.17;;;2.00;;
5608;SDS011;2826;51.354;9.588;2023-04-25T10:14:43;7.20;;;2.30;;
5608;SDS011;2826;51.354;9.588;2023-04-25T10:17:10;15.13;;;2.90;;
5608;SDS011;2826;51.354;9.588;2023-04-25T10:19:37;11.80;;;3.00;;
5608;SDS011;2826;51.354;9.588;2023-04-25T10:22:06;7.40;;;1.80;;
5608;SDS011;2826;51.354;9.588;2023-04-25T10:24:36;5.90;;;2.47;;
5608;SDS011;2826;51.354;9.588;2023-04-25T10:27:04;4.70;;;2.57;;
5608;SDS011;2826;51.354;9.588;2023-04-25T10:29:32;7.30;;;2.43;;
5608;SDS011;2826;51.354;9.588;2023-04-25T10:31:59;12.80;;;2.23;;
5608;SDS011;2826;51.354;9.588;2023-04-25T10:34:37;7.97;;;2.43;;
5608;SDS011;2826;51.354;9.588;2023-04-25T10:37:07;3.73;;;1.57;;
5608;SDS011;2826;51.354;9.588;2023-04-25T10:39:37;5.20;;;2.00;;
5608;SDS011;2826;51.354;9.588;2023-04-25T10:42:06;5.73;;;2.00;;
5608;SDS011;2826;51.354;9.588;2023-04-25T10:44:33;4.20;;;1.80;;
5608;SDS011;2826;51.354;9.588;2023-04-25T10:47:03;4.67;;;2.27;;
5608;SDS011;2826;51.354;9.588;2023-04-25T10:49:32;7.93;;;2.13;;
5608;SDS011;2826;51.354;9.588;2023-04-25T10:52:12;4.43;;;1.60;;
5608;SDS011;2826;51.354;9.588;2023-04-25T10:54:42;10.17;;;2.00;;
5608;SDS011;2826;51.354;9.588;2023-04-25T10:57:32;4.33;;;1.53;;
5608;SDS011;2826;51.354;9.588;2023-04-25T11:00:06;13.13;;;2.60;;
5608;SDS011;2826;51.354;9.588;2023-04-25T11:02:44;7.80;;;2.27;;
5608;SDS011;2826;51.354;9.588;2023-04-25T11:05:16;8.03;;;2.30;;
5608;SDS011;2826;51.354;9.588;2023-04-25T11:07:49;8.40;;;1.97;;
5608;SDS011;2826;51.354;9.588;2023-04-25T11:10:19;6.77;;;1.67;;
5608;SDS011;2826;51.354;9.588;2023-04-25T11:12:46;7.57;;;1.97;;
5608;SDS011;2826;51.354;9.588;2023-04-25T11:15:12;4.93;;;1.53;;
5608;SDS011;2826;51.354;9.588;2023-04-25T11:17:39;2.80;;;1.60;;
5608;SDS011;2826;51.354;9.588;2023-04-25T11:20:06;7.53;;;1.87;;
5608;SDS011;2826;51.354;9.588;2023-04-25T11:22:37;4.00;;;1.60;;
5608;SDS011;2826;51.354;9.588;2023-04-25T11:25:04;12.20;;;1.70;;
5608;SDS011;2826;51.354;9.588;2023-04-25T11:27:33;8.00;;;1.83;;
5608;SDS011;2826;51.354;9.588;2023-04-25T11:30:09;6.27;;;2.43;;
5608;SDS011;2826;51.354;9.588;2023-04-25T11:32:36;5.30;;;2.10;;
5608;SDS011;2826;51.354;9.588;2023-04-25T11:35:03;5.07;;;1.40;;
5608;SDS011;2826;51.354;9.588;2023-04-25T11:37:31;5.10;;;1.60;;
5608;SDS011;2826;51.354;9.588;2023-04-25T11:39:58;5.33;;;2.03;;
5608;SDS011;2826;51.354;9.588;2023-04-25T11:42:24;3.90;;;1.80;;
5608;SDS011;2826;51.354;9.588;2023-04-25T11:44:53;3.27;;;1.53;;
5608;SDS011;2826;51.354;9.588;2023-04-25T11:47:19;5.80;;;2.03;;
5608;SDS011;2826;51.354;9.588;2023-04-25T11:49:46;5.13;;;1.73;;
5608;SDS011;2826;51.354;9.588;2023-04-25T11:52:12;11.57;;;1.87;;
5608;SDS011;2826;51.354;9.588;2023-04-25T11:54:39;3.17;;;2.03;;
5608;SDS011;2826;51.354;9.588;2023-04-25T11:57:06;4.70;;;1.73;;
5608;SDS011;2826;51.354;9.588;2023-04-25T11:59:32;6.20;;;1.60;;
5608;SDS011;2826;51.354;9.588;2023-04-25T12:02:00;4.10;;;1.80;;
5608;SDS011;2826;51.354;9.588;2023-04-25T12:04:29;5.53;;;1.97;;
5608;SDS011;2826;51.354;9.588;2023-04-25T12:06:57;3.57;;;1.60;;
5608;SDS011;2826;51.354;9.588;2023-04-25T12:09:27;3.37;;;1.80;;
5608;SDS011;2826;51.354;9.588;2023-04-25T12:11:56;4.17;;;1.50;;
5608;SDS011;2826;51.354;9.588;2023-04-25T12:14:24;5.83;;;1.70;;
5608;SDS011;2826;51.354;9.588;2023-04-25T12:16:52;12.83;;;2.27;;
5608;SDS011;2826;51.354;9.588;2023-04-25T12:19:24;4.43;;;2.07;;
5608;SDS011;2826;51.354;9.588;2023-04-25T12:21:51;4.00;;;1.67;;
5608;SDS011;2826;51.354;9.588;2023-04-25T12:24:21;6.90;;;2.07;;
5608;SDS011;2826;51.354;9.588;2023-04-25T12:26:51;9.00;;;2.40;;
5608;SDS011;2826;51.354;9.588;2023-04-25T12:29:20;7.83;;;1.80;;
5608;SDS011;2826;51.354;9.588;2023-04-25T12:31:48;11.30;;;2.37;;
5608;SDS011;2826;51.354;9.588;2023-04-25T12:34:15;8.80;;;1.80;;
5608;SDS011;2826;51.354;9.588;2023-04-25T12:36:43;4.57;;;1.83;;
5608;SDS011;2826;51.354;9.588;2023-04-25T12:39:13;10.00;;;2.53;;
5608;SDS011;2826;51.354;9.588;2023-04-25T12:41:41;5.70;;;2.00;;
5608;SDS011;2826;51.354;9.588;2023-04-25T12:44:08;4.33;;;1.80;;
5608;SDS011;2826;51.354;9.588;2023-04-25T12:46:35;15.73;;;2.23;;
5608;SDS011;2826;51.354;9.588;2023-04-25T12:49:01;10.03;;;2.93;;
5608;SDS011;2826;51.354;9.588;2023-04-25T12:51:28;7.53;;;2.23;;
5608;SDS011;2826;51.354;9.588;2023-04-25T12:53:56;16.70;;;2.67;;
5608;SDS011;2826;51.354;9.588;2023-04-25T12:56:23;4.70;;;1.90;;
5608;SDS011;2826;51.354;9.588;2023-04-25T12:58:49;3.50;;;1.90;;
5608;SDS011;2826;51.354;9.588;2023-04-25T13:01:16;7.60;;;2.80;;
5608;SDS011;2826;51.354;9.588;2023-04-25T13:03:42;14.83;;;2.20;;
5608;SDS011;2826;51.354;9.588;2023-04-25T13:06:09;7.83;;;2.13;;
5608;SDS011;2826;51.354;9.588;2023-04-25T13:08:37;4.63;;;1.73;;
5608;SDS011;2826;51.354;9.588;2023-04-25T13:11:05;9.53;;;2.63;;
5608;SDS011;2826;51.354;9.588;2023-04-25T13:13:32;2.10;;;1.73;;
5608;SDS011;2826;51.354;9.588;2023-04-25T13:15:59;3.07;;;2.20;;
5608;SDS011;2826;51.354;9.588;2023-04-25T13:18:27;3.80;;;1.93;;
5608;SDS011;2826;51.354;9.588;2023-04-25T13:20:53;2.90;;;1.70;;
5608;SDS011;2826;51.354;9.588;2023-04-25T13:23:20;6.13;;;2.10;;
5608;SDS011;2826;51.354;9.588;2023-04-25T13:25:46;2.40;;;1.63;;
5608;SDS011;2826;51.354;9.588;2023-04-25T13:28:15;5.10;;;2.20;;
5608;SDS011;2826;51.354;9.588;2023-04-25T13:30:41;3.53;;;1.63;;
5608;SDS011;2826;51.354;9.588;2023-04-25T13:33:08;4.40;;;2.00;;
5608;SDS011;2826;51.354;9.588;2023-04-25T13:35:36;4.20;;;2.00;;
5608;SDS011;2826;51.354;9.588;2023-04-25T13:38:03;3.00;;;1.73;;
5608;SDS011;2826;51.354;9.588;2023-04-25T13:40:30;9.23;;;2.37;;
5608;SDS011;2826;51.354;9.588;2023-04-25T13:42:58;6.23;;;1.73;;
5608;SDS011;2826;51.354;9.588;2023-04-25T13:45:26;3.97;;;2.37;;
5608;SDS011;2826;51.354;9.588;2023-04-25T13:47:52;5.80;;;2.30;;
5608;SDS011;2826;51.354;9.588;2023-04-25T13:50:19;6.40;;;2.07;;
5608;SDS011;2826;51.354;9.588;2023-04-25T13:52:45;10.60;;;2.13;;
5608;SDS011;2826;51.354;9.588;2023-04-25T13:55:12;3.80;;;1.53;;
5608;SDS011;2826;51.354;9.588;2023-04-25T13:57:39;5.50;;;2.20;;
5608;SDS011;2826;51.354;9.588;2023-04-25T14:00:05;5.53;;;1.90;;
5608;SDS011;2826;51.354;9.588;2023-04-25T14:02:36;7.10;;;1.97;;
5608;SDS011;2826;51.354;9.588;2023-04-25T14:05:03;4.30;;;2.10;;
5608;SDS011;2826;51.354;9.588;2023-04-25T14:07:31;3.70;;;1.77;;
5608;SDS011;2826;51.354;9.588;2023-04-25T14:10:00;2.63;;;1.40;;
5608;SDS011;2826;51.354;9.588;2023-04-25T14:12:27;6.27;;;1.73;;
5608;SDS011;2826;51.354;9.588;2023-04-25T14:14:53;13.03;;;2.33;;
5608;SDS011;2826;51.354;9.588;2023-04-25T14:17:20;7.13;;;2.03;;
5608;SDS011;2826;51.354;9.588;2023-04-25T14:19:49;8.67;;;2.40;;
5608;SDS011;2826;51.354;9.588;2023-04-25T14:22:15;11.43;;;2.10;;
5608;SDS011;2826;51.354;9.588;2023-04-25T14:24:42;5.47;;;2.00;;
5608;SDS011;2826;51.354;9.588;2023-04-25T14:27:08;5.57;;;2.20;;
5608;SDS011;2826;51.354;9.588;2023-04-25T14:29:35;5.20;;;3.17;;
5608;SDS011;2826;51.354;9.588;2023-04-25T14:32:02;4.20;;;1.53;;
5608;SDS011;2826;51.354;9.588;2023-04-25T14:34:30;10.23;;;2.00;;
5608;SDS011;2826;51.354;9.588;2023-04-25T14:36:58;16.90;;;2.27;;
5608;SDS011;2826;51.354;9.588;2023-04-25T14:39:25;2.83;;;2.03;;
5608;SDS011;2826;51.354;9.588;2023-04-25T14:41:51;4.90;;;1.50;;
5608;SDS011;2826;51.354;9.588;2023-04-25T14:44:17;8.30;;;2.00;;
5608;SDS011;2826;51.354;9.588;2023-04-25T14:46:44;6.37;;;1.70;;
5608;SDS011;2826;51.354;9.588;2023-04-25T14:49:10;8.23;;;2.03;;
5608;SDS011;2826;51.354;9.588;2023-04-25T14:51:37;3.00;;;1.80;;
5608;SDS011;2826;51.354;9.588;2023-04-25T14:54:05;6.33;;;2.03;;
5608;SDS011;2826;51.354;9.588;2023-04-25T14:56:32;6.20;;;2.40;;
5608;SDS011;2826;51.354;9.588;2023-04-25T14:58:59;4.53;;;2.10;;
5608;SDS011;2826;51.354;9.588;2023-04-25T15:01:25;4.50;;;2.20;;
5608;SDS011;2826;51.354;9.588;2023-04-25T15:03:52;6.77;;;1.60;;
5608;SDS011;2826;51.354;9.588;2023-04-25T15:06:18;2.80;;;1.80;;
5608;SDS011;2826;51.354;9.588;2023-04-25T15:08:45;4.00;;;1.80;;
5608;SDS011;2826;51.354;9.588;2023-04-25T15:11:13;6.23;;;1.83;;
5608;SDS011;2826;51.354;9.588;2023-04-25T15:13:40;3.10;;;1.93;;
5608;SDS011;2826;51.354;9.588;2023-04-25T15:16:06;3.07;;;1.50;;
5608;SDS011;2826;51.354;9.588;2023-04-25T15:18:33;4.77;;;2.67;;
5608;SDS011;2826;51.354;9.588;2023-04-25T15:21:00;5.13;;;1.57;;
5608;SDS011;2826;51.354;9.588;2023-04-25T15:23:27;4.43;;;1.67;;
5608;SDS011;2826;51.354;9.588;2023-04-25T15:25:53;7.10;;;2.10;;